Time;durP1;ratioP1;P1;durP2;ratioP2;P2;SDS_P1;SDS_P2;PMS_P1;PMS_P2;Temp;Humidity;BMP_temperature;BMP_pressure;BME280_temperature;BME280_humidity;BME280_pressure;Samples;Min_cycle;Max_cycle;Signal;HPM_P1;HPM_P2
2020/08/19 00:02:07;;;;;;;1.52;1.42;;;;;;;23.35;71.12;100052.86;;;;-57
2020/08/19 00:05:07;;;;;;;1.60;1.50;;;;;;;23.35;71.10;100052.61;;;;-57
2020/08/19 00:08:07;;;;;;;1.59;1.49;;;;;;;23.35;71.16;100045.26;;;;-57
2020/08/19 00:11:07;;;;;;;1.50;1.40;;;;;;;23.34;71.11;100044.69;;;;-57
2020/08/19 00:14:07;;;;;;;1.57;1.47;;;;;;;23.34;71.13;100046.23;;;;-57
2020/08/19 00:17:07;;;;;;;1.51;1.41;;;;;;;23.33;71.10;100052.22;;;;-58
2020/08/19 00:20:07;;;;;;;1.40;1.30;;;;;;;23.34;71.10;100050.33;;;;-57
2020/08/19 00:23:07;;;;;;;1.57;1.47;;;;;;;23.33;71.11;100049.20;;;;-58
2020/08/19 00:26:07;;;;;;;1.56;1.46;;;;;;;23.33;71.09;100051.67;;;;-57
2020/08/19 00:29:07;;;;;;;2.00;1.39;;;;;;;23.33;71.11;100062.80;;;;-57
2020/08/19 00:32:07;;;;;;;1.60;1.50;;;;;;;23.32;71.12;100061.95;;;;-57
2020/08/19 00:35:07;;;;;;;1.50;1.40;;;;;;;23.32;71.06;100063.84;;;;-58
2020/08/19 00:38:07;;;;;;;1.40;1.30;;;;;;;23.32;71.08;100063.03;;;;-57
2020/08/19 00:41:07;;;;;;;1.52;1.42;;;;;;;23.31;71.14;100076.45;;;;-57
2020/08/19 00:44:07;;;;;;;2.27;1.30;;;;;;;23.31;71.09;100073.77;;;;-58
2020/08/19 00:47:07;;;;;;;1.40;1.30;;;;;;;23.30;71.09;100074.50;;;;-57
2020/08/19 00:50:07;;;;;;;1.39;1.26;;;;;;;23.30;71.10;100078.20;;;;-57
2020/08/19 00:53:07;;;;;;;1.77;1.48;;;;;;;23.30;71.09;100073.78;;;;-57
2020/08/19 00:56:07;;;;;;;1.48;1.38;;;;;;;23.30;71.09;100063.39;;;;-57
2020/08/19 00:59:07;;;;;;;1.44;1.30;;;;;;;23.29;71.14;100057.84;;;;-57
2020/08/19 01:02:08;;;;;;;1.50;1.40;;;;;;;23.29;71.10;100048.59;;;;-57
2020/08/19 01:05:07;;;;;;;1.43;1.33;;;;;;;23.29;71.04;100049.43;;;;-57
2020/08/19 01:08:07;;;;;;;1.56;1.46;;;;;;;23.28;71.10;100052.94;;;;-58
2020/08/19 01:11:07;;;;;;;1.40;1.30;;;;;;;23.28;71.11;100055.55;;;;-57
2020/08/19 01:14:07;;;;;;;1.57;1.47;;;;;;;23.28;71.06;100053.28;;;;-57
2020/08/19 01:17:07;;;;;;;1.40;1.30;;;;;;;23.27;71.09;100043.09;;;;-58
2020/08/19 01:20:08;;;;;;;1.49;1.39;;;;;;;23.27;71.09;100041.92;;;;-58
2020/08/19 01:23:07;;;;;;;1.59;1.33;;;;;;;23.27;71.10;100040.55;;;;-57
2020/08/19 01:26:07;;;;;;;1.56;1.46;;;;;;;23.26;71.07;100037.22;;;;-57
2020/08/19 01:29:07;;;;;;;1.55;1.45;;;;;;;23.27;71.05;100035.33;;;;-58
2020/08/19 01:32:07;;;;;;;1.59;1.49;;;;;;;23.26;71.05;100040.63;;;;-58
2020/08/19 01:35:07;;;;;;;1.37;1.27;;;;;;;23.26;71.07;100039.00;;;;-57
2020/08/19 01:38:07;;;;;;;1.63;1.35;;;;;;;23.26;71.05;100031.73;;;;-57
2020/08/19 01:41:07;;;;;;;1.41;1.31;;;;;;;23.25;71.02;100028.41;;;;-57
2020/08/19 01:44:07;;;;;;;1.50;1.40;;;;;;;23.26;71.04;100025.52;;;;-57
2020/08/19 01:47:07;;;;;;;1.44;1.34;;;;;;;23.26;71.04;100028.30;;;;-57
2020/08/19 01:50:08;;;;;;;1.59;1.49;;;;;;;23.25;71.00;100030.37;;;;-58
2020/08/19 01:53:07;;;;;;;1.54;1.43;;;;;;;23.25;71.02;100028.49;;;;-58
2020/08/19 01:56:07;;;;;;;1.97;1.30;;;;;;;23.24;71.04;100024.39;;;;-58
2020/08/19 01:59:07;;;;;;;1.40;1.30;;;;;;;23.24;71.02;100024.55;;;;-57
2020/08/19 02:02:07;;;;;;;1.50;1.40;;;;;;;23.24;71.02;100021.30;;;;-57
2020/08/19 02:05:07;;;;;;;1.40;1.30;;;;;;;23.24;71.02;100021.62;;;;-57
2020/08/19 02:08:07;;;;;;;1.38;1.28;;;;;;;23.24;71.01;100023.59;;;;-57
2020/08/19 02:11:07;;;;;;;1.56;1.39;;;;;;;23.23;71.01;100022.86;;;;-57
2020/08/19 02:14:07;;;;;;;1.51;1.41;;;;;;;23.23;71.06;100014.46;;;;-57
2020/08/19 02:17:07;;;;;;;1.45;1.35;;;;;;;23.22;71.01;100015.53;;;;-57
2020/08/19 02:20:07;;;;;;;1.35;1.25;;;;;;;23.22;71.02;100013.72;;;;-57
2020/08/19 02:23:07;;;;;;;1.49;1.39;;;;;;;23.22;70.97;100012.58;;;;-58
2020/08/19 02:26:07;;;;;;;1.50;1.40;;;;;;;23.22;71.02;100012.34;;;;-58
2020/08/19 02:29:07;;;;;;;1.46;1.36;;;;;;;23.22;70.97;100008.91;;;;-57
2020/08/19 02:32:07;;;;;;;1.52;1.42;;;;;;;23.22;70.97;100008.91;;;;-58
2020/08/19 02:35:07;;;;;;;1.50;1.40;;;;;;;23.21;70.98;100002.87;;;;-57
2020/08/19 02:38:07;;;;;;;1.40;1.30;;;;;;;23.20;70.99;100001.09;;;;-58
2020/08/19 02:41:07;;;;;;;1.40;1.30;;;;;;;23.21;70.96;99999.53;;;;-57
2020/08/19 02:44:07;;;;;;;1.50;1.40;;;;;;;23.20;70.95;99994.31;;;;-58
2020/08/19 02:47:07;;;;;;;1.31;1.21;;;;;;;23.20;70.96;100001.25;;;;-58
2020/08/19 02:50:07;;;;;;;1.37;1.27;;;;;;;23.20;70.97;100001.23;;;;-57
2020/08/19 02:53:07;;;;;;;1.44;1.20;;;;;;;23.19;70.97;100003.22;;;;-58
2020/08/19 02:56:07;;;;;;;1.40;1.30;;;;;;;23.19;70.95;100004.70;;;;-58
2020/08/19 02:59:07;;;;;;;1.40;1.30;;;;;;;23.19;70.95;100005.27;;;;-58
2020/08/19 03:02:07;;;;;;;1.40;1.30;;;;;;;23.19;70.95;100008.21;;;;-57
2020/08/19 03:05:07;;;;;;;1.35;1.25;;;;;;;23.19;70.93;100008.47;;;;-58
2020/08/19 03:08:07;;;;;;;1.49;1.39;;;;;;;23.19;70.93;100002.83;;;;-57
2020/08/19 03:11:07;;;;;;;1.33;1.23;;;;;;;23.19;70.98;100002.67;;;;-57
2020/08/19 03:14:07;;;;;;;1.38;1.28;;;;;;;23.18;70.94;100000.32;;;;-58
2020/08/19 03:17:07;;;;;;;1.39;1.29;;;;;;;23.18;70.92;100001.30;;;;-57
2020/08/19 03:20:07;;;;;;;1.27;1.21;;;;;;;23.18;70.98;99998.75;;;;-58
2020/08/19 03:23:07;;;;;;;1.30;1.20;;;;;;;23.17;70.95;100000.39;;;;-57
2020/08/19 03:26:07;;;;;;;1.20;1.20;;;;;;;23.17;70.93;99999.18;;;;-58
2020/08/19 03:29:07;;;;;;;1.40;1.30;;;;;;;23.17;70.93;99996.48;;;;-57
2020/08/19 03:32:07;;;;;;;1.30;1.20;;;;;;;23.16;70.90;99992.58;;;;-57
2020/08/19 03:35:07;;;;;;;1.35;1.28;;;;;;;23.16;70.92;100000.27;;;;-58
2020/08/19 03:38:07;;;;;;;1.40;1.30;;;;;;;23.16;70.91;99996.91;;;;-57
2020/08/19 03:41:07;;;;;;;1.23;1.20;;;;;;;23.15;70.90;99993.73;;;;-58
2020/08/19 03:44:07;;;;;;;1.27;1.20;;;;;;;23.15;70.93;99992.16;;;;-57
2020/08/19 03:47:07;;;;;;;1.30;1.20;;;;;;;23.15;70.88;99993.49;;;;-57
2020/08/19 03:50:07;;;;;;;1.33;1.23;;;;;;;23.16;70.91;99993.33;;;;-57
2020/08/19 03:53:07;;;;;;;1.40;1.30;;;;;;;23.15;70.89;99991.52;;;;-58
2020/08/19 03:56:07;;;;;;;1.40;1.30;;;;;;;23.15;70.92;99991.45;;;;-58
2020/08/19 03:59:07;;;;;;;1.39;1.29;;;;;;;23.14;70.88;99992.38;;;;-57
2020/08/19 04:02:07;;;;;;;4.82;2.45;;;;;;;23.03;68.23;99991.47;;;;-62
2020/08/19 04:05:07;;;;;;;3.37;2.69;;;;;;;22.90;66.72;99989.27;;;;-61
2020/08/19 04:08:07;;;;;;;3.11;2.81;;;;;;;22.66;67.05;99992.97;;;;-62
2020/08/19 04:11:07;;;;;;;3.11;2.84;;;;;;;22.46;67.28;99996.45;;;;-63
2020/08/19 04:14:07;;;;;;;2.95;2.73;;;;;;;22.36;67.50;100006.05;;;;-63
2020/08/19 04:17:07;;;;;;;3.04;2.81;;;;;;;22.22;67.78;100009.22;;;;-63
2020/08/19 04:20:07;;;;;;;3.01;2.70;;;;;;;22.09;68.09;100005.37;;;;-62
2020/08/19 04:23:07;;;;;;;3.69;2.98;;;;;;;21.96;68.39;100009.92;;;;-63
2020/08/19 04:26:07;;;;;;;3.25;2.92;;;;;;;21.87;68.52;100008.09;;;;-62
2020/08/19 04:29:07;;;;;;;3.30;3.00;;;;;;;21.77;68.88;100012.59;;;;-63
2020/08/19 04:32:07;;;;;;;4.03;3.40;;;;;;;21.72;68.92;100015.23;;;;-62
2020/08/19 04:35:07;;;;;;;3.38;3.11;;;;;;;21.65;69.36;100016.70;;;;-62
2020/08/19 04:38:07;;;;;;;4.29;3.34;;;;;;;21.56;69.46;100014.03;;;;-62
2020/08/19 04:41:07;;;;;;;4.37;3.78;;;;;;;21.47;69.63;100022.34;;;;-62
2020/08/19 04:44:07;;;;;;;3.97;3.67;;;;;;;21.49;69.80;100028.42;;;;-61
2020/08/19 04:47:07;;;;;;;4.73;3.87;;;;;;;21.39;69.97;100025.55;;;;-62
2020/08/19 04:50:07;;;;;;;4.74;4.23;;;;;;;21.33;70.03;100020.37;;;;-62
2020/08/19 04:53:07;;;;;;;4.29;3.91;;;;;;;21.26;70.21;100026.64;;;;-62
2020/08/19 04:56:07;;;;;;;4.41;3.79;;;;;;;21.24;70.39;100026.41;;;;-62
2020/08/19 04:59:07;;;;;;;3.98;3.68;;;;;;;21.20;70.26;100026.84;;;;-62
2020/08/19 05:02:07;;;;;;;4.17;3.86;;;;;;;21.16;70.75;100028.01;;;;-62
2020/08/19 05:05:07;;;;;;;4.34;3.79;;;;;;;21.12;71.08;100035.86;;;;-62
2020/08/19 05:08:07;;;;;;;4.19;3.81;;;;;;;21.11;71.17;100038.41;;;;-62
2020/08/19 05:11:07;;;;;;;4.22;3.85;;;;;;;21.05;71.24;100030.95;;;;-62
2020/08/19 05:14:07;;;;;;;4.56;3.99;;;;;;;21.06;71.21;100030.60;;;;-62
2020/08/19 05:17:07;;;;;;;4.22;3.82;;;;;;;21.01;71.53;100029.69;;;;-61
2020/08/19 05:20:07;;;;;;;4.07;3.77;;;;;;;20.97;71.67;100031.64;;;;-62
2020/08/19 05:23:07;;;;;;;3.93;3.63;;;;;;;20.98;71.75;100033.86;;;;-62
2020/08/19 05:26:07;;;;;;;4.29;3.95;;;;;;;20.92;71.90;100031.11;;;;-62
2020/08/19 05:30:07;;;;;;;4.98;4.21;;;;;;;20.89;72.14;100026.25;;;;-62
2020/08/19 05:33:07;;;;;;;4.67;4.13;;;;;;;20.88;72.16;100025.45;;;;-61
2020/08/19 05:36:07;;;;;;;4.45;4.03;;;;;;;20.84;72.45;100026.95;;;;-61
2020/08/19 05:41:07;;;;;;;5.55;3.99;;;;;;;20.84;72.74;100022.86;;;;-62
2020/08/19 05:44:07;;;;;;;4.39;3.99;;;;;;;20.79;72.99;100022.66;;;;-61
2020/08/19 05:47:07;;;;;;;4.29;3.89;;;;;;;20.81;72.97;100024.91;;;;-62
2020/08/19 05:50:07;;;;;;;4.46;4.06;;;;;;;20.81;73.42;100024.67;;;;-62
2020/08/19 05:53:07;;;;;;;4.47;4.07;;;;;;;20.80;73.43;100023.95;;;;-61
2020/08/19 05:56:07;;;;;;;4.37;4.01;;;;;;;20.82;73.69;100020.19;;;;-62
2020/08/19 05:59:07;;;;;;;5.18;4.02;;;;;;;20.82;73.81;100019.78;;;;-63
2020/08/19 06:02:07;;;;;;;4.07;3.77;;;;;;;20.81;73.98;100021.17;;;;-62
2020/08/19 06:05:07;;;;;;;4.78;4.09;;;;;;;20.78;74.18;100020.70;;;;-62
2020/08/19 06:08:07;;;;;;;4.43;4.03;;;;;;;20.77;74.27;100017.04;;;;-62
2020/08/19 06:11:07;;;;;;;5.09;3.91;;;;;;;20.80;74.41;100012.31;;;;-62
2020/08/19 06:14:07;;;;;;;4.63;4.07;;;;;;;20.78;74.24;100010.45;;;;-62
2020/08/19 06:17:07;;;;;;;4.07;3.74;;;;;;;20.78;74.88;100014.34;;;;-62
2020/08/19 06:20:07;;;;;;;4.19;3.68;;;;;;;20.79;74.87;100012.12;;;;-62
2020/08/19 06:23:07;;;;;;;4.17;3.71;;;;;;;20.81;74.87;100010.58;;;;-62
2020/08/19 06:26:07;;;;;;;4.60;3.88;;;;;;;20.82;74.75;100007.17;;;;-62
2020/08/19 06:29:07;;;;;;;3.97;3.65;;;;;;;20.84;75.05;100012.27;;;;-62
2020/08/19 06:32:07;;;;;;;5.01;3.85;;;;;;;20.83;75.39;100014.88;;;;-62
2020/08/19 06:35:07;;;;;;;6.07;3.31;;;;;;;20.83;75.49;100019.70;;;;-62
2020/08/19 06:38:07;;;;;;;3.97;3.58;;;;;;;20.84;75.07;100023.52;;;;-61
2020/08/19 06:41:07;;;;;;;5.07;3.71;;;;;;;20.85;75.17;100019.03;;;;-63
2020/08/19 06:44:07;;;;;;;5.69;3.51;;;;;;;20.89;75.15;100011.34;;;;-62
2020/08/19 06:47:07;;;;;;;4.79;4.05;;;;;;;20.88;74.79;100010.70;;;;-62
2020/08/19 06:50:07;;;;;;;4.57;4.00;;;;;;;20.86;74.84;100010.80;;;;-62
2020/08/19 06:53:07;;;;;;;4.41;4.07;;;;;;;20.85;74.68;100009.98;;;;-62
2020/08/19 06:56:07;;;;;;;20.81;4.36;;;;;;;20.85;74.92;100005.51;;;;-60
2020/08/19 06:59:07;;;;;;;6.81;3.44;;;;;;;20.90;74.69;100010.20;;;;-58
2020/08/19 07:02:07;;;;;;;5.23;3.06;;;;;;;20.98;74.54;100010.64;;;;-58
2020/08/19 07:05:07;;;;;;;4.21;2.69;;;;;;;21.05;74.32;100012.30;;;;-59
2020/08/19 07:08:07;;;;;;;4.17;2.56;;;;;;;21.12;74.16;100019.81;;;;-57
2020/08/19 07:11:07;;;;;;;2.42;2.22;;;;;;;21.17;74.00;100019.39;;;;-56
2020/08/19 07:14:07;;;;;;;3.16;2.26;;;;;;;21.22;73.90;100025.19;;;;-56
2020/08/19 07:17:07;;;;;;;3.61;2.11;;;;;;;21.26;73.81;100019.30;;;;-58
2020/08/19 07:20:07;;;;;;;4.33;2.29;;;;;;;21.32;73.77;100023.91;;;;-59
2020/08/19 07:23:07;;;;;;;3.19;2.08;;;;;;;21.36;73.73;100025.34;;;;-56
2020/08/19 07:26:07;;;;;;;3.67;1.89;;;;;;;21.40;73.64;100025.72;;;;-56
2020/08/19 07:29:07;;;;;;;3.46;2.03;;;;;;;21.44;73.51;100024.97;;;;-59
2020/08/19 07:32:07;;;;;;;2.97;1.96;;;;;;;21.47;73.40;100022.09;;;;-59
2020/08/19 07:35:07;;;;;;;2.88;1.95;;;;;;;21.49;73.30;100020.52;;;;-59
2020/08/19 07:38:07;;;;;;;2.10;1.90;;;;;;;21.51;73.28;100020.25;;;;-53
2020/08/19 07:41:07;;;;;;;1.88;1.62;;;;;;;21.54;73.18;100016.31;;;;-54
2020/08/19 07:44:07;;;;;;;1.91;1.73;;;;;;;21.55;73.12;100018.42;;;;-53
2020/08/19 07:47:07;;;;;;;1.77;1.56;;;;;;;21.58;73.06;100020.02;;;;-54
2020/08/19 07:50:07;;;;;;;1.91;1.71;;;;;;;21.59;72.94;100018.80;;;;-54
2020/08/19 07:53:07;;;;;;;2.80;1.70;;;;;;;21.61;72.96;100023.02;;;;-54
2020/08/19 07:56:07;;;;;;;1.85;1.71;;;;;;;21.64;72.84;100023.39;;;;-53
2020/08/19 07:59:07;;;;;;;3.13;1.67;;;;;;;21.65;72.84;100020.77;;;;-54
2020/08/19 08:02:07;;;;;;;2.58;1.67;;;;;;;21.67;72.77;100018.23;;;;-53
2020/08/19 08:05:07;;;;;;;2.94;1.70;;;;;;;21.68;72.70;100017.48;;;;-54
2020/08/19 08:08:07;;;;;;;2.43;1.71;;;;;;;21.70;72.68;100017.70;;;;-54
2020/08/19 08:11:07;;;;;;;2.45;1.81;;;;;;;21.72;72.64;100022.09;;;;-54
2020/08/19 08:14:07;;;;;;;1.83;1.65;;;;;;;21.73;72.57;100022.75;;;;-54
2020/08/19 08:17:09;;;;;;;1.84;1.59;;;;;;;21.75;72.52;100023.11;;;;-54
2020/08/19 08:20:07;;;;;;;1.86;1.60;;;;;;;21.76;72.51;100023.34;;;;-54
2020/08/19 08:23:07;;;;;;;1.64;1.52;;;;;;;21.78;72.40;100016.73;;;;-54
2020/08/19 08:26:07;;;;;;;1.84;1.49;;;;;;;21.79;72.35;100015.98;;;;-54
2020/08/19 08:29:07;;;;;;;1.75;1.60;;;;;;;21.81;72.33;100012.23;;;;-53
2020/08/19 08:32:07;;;;;;;2.37;1.61;;;;;;;21.82;72.32;100013.69;;;;-54
2020/08/19 08:35:07;;;;;;;9.06;1.99;;;;;;;21.85;72.39;100007.62;;;;-51
2020/08/19 08:38:07;;;;;;;2.31;1.70;;;;;;;21.88;72.34;100005.21;;;;-50
2020/08/19 08:41:07;;;;;;;2.62;1.67;;;;;;;21.90;72.36;100011.80;;;;-49
2020/08/19 08:44:07;;;;;;;4.34;1.74;;;;;;;21.92;72.44;100008.61;;;;-50
2020/08/19 08:47:07;;;;;;;2.47;1.61;;;;;;;21.95;72.41;100009.13;;;;-51
2020/08/19 08:50:07;;;;;;;3.27;1.65;;;;;;;21.97;72.32;100008.12;;;;-49
2020/08/19 08:53:07;;;;;;;3.00;1.67;;;;;;;21.98;72.33;100008.77;;;;-50
2020/08/19 08:56:07;;;;;;;3.53;1.60;;;;;;;22.01;72.33;100007.83;;;;-54
2020/08/19 08:59:07;;;;;;;3.21;1.72;;;;;;;22.05;72.37;100006.90;;;;-57
2020/08/19 09:02:07;;;;;;;6.85;1.71;;;;;;;22.08;72.41;100000.34;;;;-53
2020/08/19 09:05:07;;;;;;;3.13;1.60;;;;;;;22.10;72.53;99993.84;;;;-52
2020/08/19 09:08:07;;;;;;;3.65;1.81;;;;;;;22.12;72.49;99997.90;;;;-57
2020/08/19 09:11:07;;;;;;;4.90;1.61;;;;;;;22.13;72.52;100000.09;;;;-54
2020/08/19 09:14:07;;;;;;;2.58;1.70;;;;;;;22.16;72.41;99996.23;;;;-54
2020/08/19 09:17:07;;;;;;;5.97;1.87;;;;;;;22.18;72.37;99994.41;;;;-61
2020/08/19 09:20:08;;;;;;;4.47;1.73;;;;;;;22.20;72.36;99992.58;;;;-61
2020/08/19 09:23:07;;;;;;;2.99;1.75;;;;;;;22.22;72.33;99992.71;;;;-53
2020/08/19 09:26:07;;;;;;;3.57;1.54;;;;;;;22.24;72.30;99986.62;;;;-58
2020/08/19 09:29:07;;;;;;;3.19;1.60;;;;;;;22.26;72.24;99981.44;;;;-61
2020/08/19 09:32:07;;;;;;;2.55;1.83;;;;;;;22.29;72.26;99980.85;;;;-57
2020/08/19 09:35:07;;;;;;;4.21;1.59;;;;;;;22.30;72.25;99976.33;;;;-47
2020/08/19 09:38:07;;;;;;;2.31;1.60;;;;;;;22.31;72.34;99967.11;;;;-45
2020/08/19 09:41:07;;;;;;;4.75;1.74;;;;;;;22.32;72.29;99971.24;;;;-50
2020/08/19 09:44:07;;;;;;;5.69;1.76;;;;;;;22.33;72.23;99961.61;;;;-49
2020/08/19 09:47:07;;;;;;;3.52;1.72;;;;;;;22.35;72.16;99956.27;;;;-49
2020/08/19 09:50:07;;;;;;;3.23;1.60;;;;;;;22.36;72.19;99951.59;;;;-48
2020/08/19 09:53:07;;;;;;;4.71;1.69;;;;;;;22.38;72.14;99956.21;;;;-57
2020/08/19 09:56:07;;;;;;;3.75;1.66;;;;;;;22.40;72.06;99950.80;;;;-52
2020/08/19 09:59:07;;;;;;;3.96;1.73;;;;;;;22.43;72.06;99947.34;;;;-55
2020/08/19 10:02:07;;;;;;;2.85;1.67;;;;;;;22.44;71.94;99945.86;;;;-50
2020/08/19 10:05:07;;;;;;;2.61;1.67;;;;;;;22.46;72.01;99945.75;;;;-53
2020/08/19 10:08:07;;;;;;;6.51;1.79;;;;;;;22.47;71.99;99938.46;;;;-50
2020/08/19 10:11:07;;;;;;;1.71;1.55;;;;;;;22.48;72.04;99935.84;;;;-48
2020/08/19 10:14:07;;;;;;;3.27;1.69;;;;;;;22.50;72.03;99940.55;;;;-53
2020/08/19 10:17:07;;;;;;;3.03;1.60;;;;;;;22.52;71.92;99943.62;;;;-60
2020/08/19 10:20:07;;;;;;;4.37;1.77;;;;;;;22.53;72.04;99941.46;;;;-56
2020/08/19 10:23:07;;;;;;;7.09;1.83;;;;;;;22.54;72.09;99932.66;;;;-60
2020/08/19 10:26:07;;;;;;;2.43;1.51;;;;;;;22.55;72.11;99938.48;;;;-51
2020/08/19 10:29:07;;;;;;;3.21;1.63;;;;;;;22.57;72.02;99937.27;;;;-50
2020/08/19 10:32:07;;;;;;;3.51;1.66;;;;;;;22.59;72.00;99940.82;;;;-54
2020/08/19 10:35:07;;;;;;;5.95;1.88;;;;;;;22.57;71.60;99940.09;;;;-55
2020/08/19 10:38:07;;;;;;;3.57;1.86;;;;;;;22.57;71.82;99935.13;;;;-55
2020/08/19 10:41:07;;;;;;;3.67;1.54;;;;;;;22.55;71.79;99933.42;;;;-49
2020/08/19 10:44:07;;;;;;;4.42;1.67;;;;;;;22.55;71.75;99934.01;;;;-61
2020/08/19 10:47:07;;;;;;;1.83;1.52;;;;;;;22.54;71.73;99932.16;;;;-52
2020/08/19 10:50:07;;;;;;;4.28;1.64;;;;;;;22.54;71.69;99923.89;;;;-54
2020/08/19 10:53:07;;;;;;;2.28;1.67;;;;;;;22.53;71.63;99922.61;;;;-55
2020/08/19 10:56:07;;;;;;;5.25;1.82;;;;;;;22.52;71.70;99917.48;;;;-55
2020/08/19 10:59:07;;;;;;;5.25;1.73;;;;;;;22.52;71.67;99914.89;;;;-55
2020/08/19 11:02:07;;;;;;;3.65;1.66;;;;;;;22.51;71.67;99913.25;;;;-55
2020/08/19 11:05:07;;;;;;;4.69;1.60;;;;;;;22.51;71.60;99916.75;;;;-55
2020/08/19 11:08:07;;;;;;;4.10;1.84;;;;;;;22.50;71.64;99912.36;;;;-54
2020/08/19 11:11:07;;;;;;;2.18;1.62;;;;;;;22.51;71.59;99911.37;;;;-54
2020/08/19 11:14:07;;;;;;;3.01;1.62;;;;;;;22.50;71.58;99907.15;;;;-51
2020/08/19 11:17:07;;;;;;;2.95;1.58;;;;;;;22.50;71.52;99905.61;;;;-52
2020/08/19 11:20:07;;;;;;;2.77;1.57;;;;;;;22.50;71.53;99903.22;;;;-52
2020/08/19 11:23:07;;;;;;;1.85;1.50;;;;;;;22.50;71.51;99899.80;;;;-55
2020/08/19 11:26:07;;;;;;;4.99;1.63;;;;;;;22.50;71.50;99899.97;;;;-50
2020/08/19 11:29:07;;;;;;;1.83;1.56;;;;;;;22.50;71.48;99895.48;;;;-54
2020/08/19 11:32:07;;;;;;;2.87;1.66;;;;;;;22.50;71.47;99897.03;;;;-51
2020/08/19 11:35:07;;;;;;;2.02;1.50;;;;;;;22.49;71.46;99892.78;;;;-55
2020/08/19 11:38:07;;;;;;;2.89;1.55;;;;;;;22.49;71.44;99887.14;;;;-52
2020/08/19 11:41:07;;;;;;;3.18;1.61;;;;;;;22.49;71.41;99891.31;;;;-54
2020/08/19 11:44:07;;;;;;;1.98;1.59;;;;;;;22.48;71.43;99888.06;;;;-60
2020/08/19 11:47:07;;;;;;;2.26;1.55;;;;;;;22.49;71.40;99880.53;;;;-61
2020/08/19 11:50:07;;;;;;;4.01;1.57;;;;;;;22.49;71.36;99878.16;;;;-61
2020/08/19 11:53:07;;;;;;;3.19;1.63;;;;;;;22.49;71.38;99868.19;;;;-61
2020/08/19 11:56:07;;;;;;;2.73;1.39;;;;;;;22.49;71.34;99864.44;;;;-61
2020/08/19 11:59:07;;;;;;;4.03;1.53;;;;;;;22.49;71.37;99861.09;;;;-49
2020/08/19 12:02:07;;;;;;;3.88;1.61;;;;;;;22.48;71.33;99856.05;;;;-61
2020/08/19 12:05:07;;;;;;;3.48;1.51;;;;;;;22.49;71.32;99852.38;;;;-61
2020/08/19 12:08:07;;;;;;;2.17;1.50;;;;;;;22.48;71.33;99848.05;;;;-61
2020/08/19 12:11:07;;;;;;;2.03;1.62;;;;;;;22.48;71.28;99849.84;;;;-60
2020/08/19 12:14:07;;;;;;;4.03;1.58;;;;;;;22.51;71.38;99851.27;;;;-61
2020/08/19 12:17:07;;;;;;;2.70;1.54;;;;;;;22.53;71.55;99847.66;;;;-62
2020/08/19 12:20:07;;;;;;;3.77;1.67;;;;;;;22.54;71.40;99841.92;;;;-54
2020/08/19 12:23:07;;;;;;;3.67;1.69;;;;;;;22.56;71.49;99836.98;;;;-63
2020/08/19 12:26:07;;;;;;;2.78;1.59;;;;;;;22.58;71.64;99830.09;;;;-47
2020/08/19 12:29:07;;;;;;;3.84;1.63;;;;;;;22.60;71.65;99829.16;;;;-59
2020/08/19 12:32:07;;;;;;;4.65;1.47;;;;;;;22.63;71.78;99829.69;;;;-54
2020/08/19 12:35:07;;;;;;;9.43;2.05;;;;;;;22.66;72.38;99822.52;;;;-57
2020/08/19 12:38:07;;;;;;;7.21;1.92;;;;;;;22.67;72.07;99820.88;;;;-57
2020/08/19 12:41:07;;;;;;;19.29;2.21;;;;;;;22.70;73.05;99811.91;;;;-61
2020/08/19 12:44:07;;;;;;;16.46;2.17;;;;;;;22.72;72.61;99806.09;;;;-57
2020/08/19 12:47:07;;;;;;;10.17;2.21;;;;;;;22.73;72.46;99804.36;;;;-56
2020/08/19 12:50:07;;;;;;;12.47;2.35;;;;;;;22.75;72.56;99808.97;;;;-57
2020/08/19 12:53:07;;;;;;;18.41;2.31;;;;;;;22.76;72.60;99808.55;;;;-57
2020/08/19 12:56:07;;;;;;;9.23;2.13;;;;;;;22.78;72.73;99808.33;;;;-52
2020/08/19 12:59:07;;;;;;;11.60;2.31;;;;;;;22.80;72.61;99807.17;;;;-45
2020/08/19 13:02:07;;;;;;;8.53;1.98;;;;;;;22.80;72.61;99801.61;;;;-50
2020/08/19 13:05:07;;;;;;;9.79;2.12;;;;;;;22.82;72.61;99798.30;;;;-53
2020/08/19 13:08:07;;;;;;;9.88;2.25;;;;;;;22.85;72.40;99799.31;;;;-57
2020/08/19 13:11:07;;;;;;;8.81;2.07;;;;;;;22.85;72.40;99798.34;;;;-57
2020/08/19 13:14:07;;;;;;;9.38;2.11;;;;;;;22.87;72.25;99791.19;;;;-51
2020/08/19 13:17:07;;;;;;;6.65;1.93;;;;;;;22.89;72.25;99791.57;;;;-48
2020/08/19 13:20:07;;;;;;;7.61;1.89;;;;;;;22.91;72.27;99790.87;;;;-53
2020/08/19 13:23:07;;;;;;;4.75;1.70;;;;;;;22.91;72.22;99788.75;;;;-52
2020/08/19 13:26:07;;;;;;;7.21;2.03;;;;;;;22.92;72.14;99785.96;;;;-48
2020/08/19 13:29:07;;;;;;;7.19;1.96;;;;;;;22.93;72.09;99785.27;;;;-48
2020/08/19 13:32:07;;;;;;;5.17;1.89;;;;;;;22.95;72.16;99782.29;;;;-49
2020/08/19 13:35:07;;;;;;;6.01;1.89;;;;;;;22.96;71.97;99780.48;;;;-48
2020/08/19 13:38:07;;;;;;;7.62;1.92;;;;;;;22.98;72.01;99781.83;;;;-51
2020/08/19 13:41:07;;;;;;;4.79;1.87;;;;;;;23.00;72.02;99782.63;;;;-53
2020/08/19 13:44:07;;;;;;;6.21;2.12;;;;;;;23.01;71.96;99780.95;;;;-51
2020/08/19 13:47:07;;;;;;;4.76;1.81;;;;;;;23.02;71.85;99780.33;;;;-52
2020/08/19 13:50:07;;;;;;;7.38;2.00;;;;;;;23.02;71.83;99781.78;;;;-51
2020/08/19 13:53:07;;;;;;;4.53;1.70;;;;;;;23.04;71.81;99779.14;;;;-62
2020/08/19 13:56:07;;;;;;;6.39;1.79;;;;;;;23.05;71.78;99776.98;;;;-53
2020/08/19 13:59:07;;;;;;;4.07;1.93;;;;;;;23.05;71.70;99772.32;;;;-47
2020/08/19 14:02:07;;;;;;;5.30;1.87;;;;;;;23.07;71.88;99772.79;;;;-49
2020/08/19 14:05:07;;;;;;;4.27;1.74;;;;;;;23.08;71.79;99771.97;;;;-49
2020/08/19 14:08:07;;;;;;;5.08;1.71;;;;;;;23.08;71.73;99768.19;;;;-47
2020/08/19 14:11:07;;;;;;;3.57;1.81;;;;;;;23.08;71.73;99770.33;;;;-46
2020/08/19 14:14:07;;;;;;;4.49;1.75;;;;;;;23.10;71.75;99769.71;;;;-53
2020/08/19 14:17:07;;;;;;;4.27;1.69;;;;;;;23.10;71.77;99760.95;;;;-48
2020/08/19 14:20:07;;;;;;;4.09;1.65;;;;;;;23.11;71.72;99759.78;;;;-54
2020/08/19 14:23:07;;;;;;;5.32;2.01;;;;;;;23.12;71.79;99753.23;;;;-46
2020/08/19 14:26:07;;;;;;;4.33;1.81;;;;;;;23.12;71.75;99750.86;;;;-49
2020/08/19 14:29:07;;;;;;;3.44;1.79;;;;;;;23.12;71.77;99750.88;;;;-49
2020/08/19 14:32:07;;;;;;;6.51;1.97;;;;;;;23.11;71.55;99755.20;;;;-47
2020/08/19 14:35:07;;;;;;;5.46;1.78;;;;;;;23.11;71.59;99750.45;;;;-50
2020/08/19 14:38:07;;;;;;;5.98;1.75;;;;;;;23.12;71.63;99747.93;;;;-51
2020/08/19 14:41:07;;;;;;;9.02;2.15;;;;;;;23.13;71.62;99742.08;;;;-48
2020/08/19 14:44:07;;;;;;;8.47;1.86;;;;;;;23.15;71.52;99735.45;;;;-53
2020/08/19 14:47:07;;;;;;;8.30;1.83;;;;;;;23.16;71.58;99730.03;;;;-53
2020/08/19 14:50:07;;;;;;;5.37;2.13;;;;;;;23.17;71.52;99728.19;;;;-48
2020/08/19 14:53:07;;;;;;;5.52;1.61;;;;;;;23.17;71.50;99720.75;;;;-47
2020/08/19 14:56:07;;;;;;;5.92;1.65;;;;;;;23.17;71.56;99721.16;;;;-49
2020/08/19 14:59:07;;;;;;;3.60;1.69;;;;;;;23.18;71.62;99720.41;;;;-49
2020/08/19 15:02:07;;;;;;;3.71;1.75;;;;;;;23.20;71.45;99713.33;;;;-48
2020/08/19 15:05:07;;;;;;;5.75;1.79;;;;;;;23.20;71.54;99710.33;;;;-52
2020/08/19 15:08:07;;;;;;;3.25;1.89;;;;;;;23.20;71.62;99711.80;;;;-48
2020/08/19 15:11:07;;;;;;;4.73;1.98;;;;;;;23.22;71.53;99712.33;;;;-49
2020/08/19 15:14:07;;;;;;;4.95;1.67;;;;;;;23.22;71.65;99703.74;;;;-50
2020/08/19 15:17:07;;;;;;;6.78;1.76;;;;;;;23.23;71.60;99703.33;;;;-51
2020/08/19 15:20:07;;;;;;;2.57;1.59;;;;;;;23.24;71.51;99703.03;;;;-53
2020/08/19 15:23:07;;;;;;;3.13;1.61;;;;;;;23.25;71.55;99700.23;;;;-51
2020/08/19 15:26:07;;;;;;;5.42;1.89;;;;;;;23.27;71.51;99695.72;;;;-51
2020/08/19 15:29:07;;;;;;;4.60;1.64;;;;;;;23.27;71.55;99692.59;;;;-52
2020/08/19 15:32:07;;;;;;;4.50;1.61;;;;;;;23.28;71.52;99697.63;;;;-53
2020/08/19 15:35:07;;;;;;;4.75;1.90;;;;;;;23.28;71.58;99694.30;;;;-54
2020/08/19 15:38:07;;;;;;;6.35;1.73;;;;;;;23.29;71.50;99697.20;;;;-58
2020/08/19 15:41:07;;;;;;;2.68;1.63;;;;;;;23.30;71.50;99696.95;;;;-57
2020/08/19 15:44:07;;;;;;;4.71;1.61;;;;;;;23.28;71.18;99696.81;;;;-48
2020/08/19 15:47:07;;;;;;;5.27;1.79;;;;;;;23.27;71.31;99697.73;;;;-48
2020/08/19 15:50:07;;;;;;;2.78;1.72;;;;;;;23.27;71.39;99696.12;;;;-48
2020/08/19 15:53:07;;;;;;;4.64;1.81;;;;;;;23.26;71.31;99695.87;;;;-48
2020/08/19 15:56:07;;;;;;;3.31;1.66;;;;;;;23.25;71.28;99698.27;;;;-48
2020/08/19 15:59:07;;;;;;;4.47;1.75;;;;;;;23.24;71.22;99694.55;;;;-43
2020/08/19 16:02:07;;;;;;;3.93;1.66;;;;;;;23.24;71.09;99699.19;;;;-43
2020/08/19 16:05:07;;;;;;;6.32;1.97;;;;;;;23.23;71.14;99701.20;;;;-45
2020/08/19 16:08:07;;;;;;;3.62;1.77;;;;;;;23.24;71.20;99703.44;;;;-47
2020/08/19 16:11:07;;;;;;;2.31;1.61;;;;;;;23.25;71.14;99703.45;;;;-53
2020/08/19 16:14:07;;;;;;;4.23;1.70;;;;;;;23.27;71.18;99701.98;;;;-52
2020/08/19 16:17:07;;;;;;;4.07;1.76;;;;;;;23.28;71.17;99700.33;;;;-47
2020/08/19 16:20:07;;;;;;;7.15;2.15;;;;;;;23.29;71.21;99698.02;;;;-50
2020/08/19 16:23:07;;;;;;;5.09;1.70;;;;;;;23.29;71.10;99692.06;;;;-47
2020/08/19 16:26:07;;;;;;;6.92;1.73;;;;;;;23.31;71.10;99699.05;;;;-45
2020/08/19 16:29:07;;;;;;;5.29;1.90;;;;;;;23.32;71.07;99699.98;;;;-49
2020/08/19 16:32:07;;;;;;;5.03;1.79;;;;;;;23.32;71.21;99696.73;;;;-58
2020/08/19 16:35:07;;;;;;;4.38;1.83;;;;;;;23.33;71.20;99693.78;;;;-57
2020/08/19 16:38:07;;;;;;;5.98;1.88;;;;;;;23.32;71.28;99692.62;;;;-52
2020/08/19 16:41:07;;;;;;;11.36;2.15;;;;;;;23.33;71.33;99690.35;;;;-58
2020/08/19 16:44:07;;;;;;;10.24;2.08;;;;;;;23.34;71.25;99690.57;;;;-56
2020/08/19 16:47:07;;;;;;;6.37;1.96;;;;;;;23.34;71.47;99689.56;;;;-58
2020/08/19 16:50:07;;;;;;;8.31;2.15;;;;;;;23.36;71.36;99684.31;;;;-51
2020/08/19 16:53:07;;;;;;;17.09;2.41;;;;;;;23.35;71.41;99682.44;;;;-60